Time;durP1;ratioP1;P1;durP2;ratioP2;P2;SDS_P1;SDS_P2;PMS_P1;PMS_P2;Temp;Humidity;BMP_temperature;BMP_pressure;BME280_temperature;BME280_humidity;BME280_pressure;Samples;Min_cycle;Max_cycle;Signal;HPM_P1;HPM_P2
2023/12/03 00:00:14;;;;;;;41.07;25.27;;;0.00;12.60;;;;;;5076862;28;20556;-59
2023/12/03 00:02:42;;;;;;;35.30;23.53;;;0.00;3.80;;;;;;5077525;28;20547;-59
2023/12/03 00:05:10;;;;;;;36.30;24.33;;;0.00;14.80;;;;;;5077416;28;20492;-59
2023/12/03 00:07:37;;;;;;;35.00;23.63;;;0.00;5.80;;;;;;5076728;28;20955;-60
2023/12/03 00:10:06;;;;;;;33.53;23.00;;;0.00;15.70;;;;;;5076711;28;20496;-59
2023/12/03 00:12:34;;;;;;;38.17;24.40;;;0.00;15.20;;;;;;5077254;28;20467;-59
2023/12/03 00:15:02;;;;;;;34.70;24.03;;;0.00;8.80;;;;;;5077097;28;20456;-59
2023/12/03 00:17:29;;;;;;;40.47;23.67;;;0.00;5.20;;;;;;5076925;28;20483;-59
2023/12/03 00:19:57;;;;;;;32.43;23.90;;;0.00;7.10;;;;;;5077201;28;20483;-59
2023/12/03 00:22:24;;;;;;;33.73;22.57;;;-0.10;9.70;;;;;;5076911;28;20467;-59
2023/12/03 00:24:51;;;;;;;33.87;22.87;;;-0.10;18.40;;;;;;5076824;28;20505;-59
2023/12/03 00:27:19;;;;;;;35.87;25.30;;;-0.10;4.10;;;;;;5077216;28;20555;-59
2023/12/03 00:29:46;;;;;;;32.57;22.47;;;-0.10;8.10;;;;;;5078145;28;20460;-59
2023/12/03 00:32:14;;;;;;;31.90;23.50;;;-0.20;1.00;;;;;;5079660;28;20435;-59
2023/12/03 00:34:42;;;;;;;34.10;24.30;;;-0.10;21.40;;;;;;5079837;28;20884;-59
2023/12/03 00:37:09;;;;;;;31.50;23.10;;;-0.10;18.80;;;;;;5080835;28;20482;-59
2023/12/03 00:39:36;;;;;;;37.20;23.57;;;-0.10;12.20;;;;;;5080364;28;20438;-60
2023/12/03 00:42:03;;;;;;;31.17;22.20;;;-0.20;7.00;;;;;;5079995;28;20474;-59
2023/12/03 00:44:31;;;;;;;36.27;23.70;;;-0.30;25.50;;;;;;5079964;28;20469;-59
2023/12/03 00:46:59;;;;;;;35.50;23.20;;;-0.30;27.30;;;;;;5080341;28;20496;-59
2023/12/03 00:49:28;;;;;;;36.53;23.20;;;-0.40;50.30;;;;;;5079966;28;20471;-58
2023/12/03 00:51:56;;;;;;;40.20;25.90;;;-0.40;68.90;;;;;;5080231;28;20549;-59
2023/12/03 00:54:23;;;;;;;36.80;24.80;;;-0.40;99.90;;;;;;5080326;28;20462;-59
2023/12/03 00:56:50;;;;;;;33.73;23.90;;;-0.40;99.90;;;;;;5080991;28;20460;-59
2023/12/03 00:59:17;;;;;;;34.00;24.60;;;-0.40;99.90;;;;;;5080326;28;20827;-59
2023/12/03 01:01:44;;;;;;;36.30;23.77;;;-0.50;99.90;;;;;;5079416;28;20454;-59
2023/12/03 01:04:12;;;;;;;42.17;25.93;;;-0.50;99.90;;;;;;5080071;28;20518;-59
2023/12/03 01:06:41;;;;;;;33.77;23.13;;;-0.40;99.90;;;;;;5078962;28;20586;-59
2023/12/03 01:09:09;;;;;;;31.63;23.27;;;-0.40;99.90;;;;;;5079556;28;20494;-59
2023/12/03 01:11:40;;;;;;;33.50;25.17;;;-0.40;99.90;;;;;;5078888;28;20442;-59
2023/12/03 01:14:08;;;;;;;36.10;23.90;;;-0.40;99.90;;;;;;5079521;28;20458;-57
2023/12/03 01:16:35;;;;;;;35.27;22.97;;;-0.40;99.90;;;;;;5079616;28;20457;-59
2023/12/03 01:19:02;;;;;;;37.20;24.33;;;-0.30;99.90;;;;;;5080304;28;20495;-59
2023/12/03 01:21:29;;;;;;;34.00;22.70;;;-0.40;99.90;;;;;;5079468;28;20470;-59
2023/12/03 01:23:58;;;;;;;35.67;23.87;;;-0.30;99.90;;;;;;5079615;28;20462;-59
2023/12/03 01:26:25;;;;;;;37.50;25.60;;;-0.30;99.90;;;;;;5079807;28;20491;-58
2023/12/03 01:28:52;;;;;;;33.33;22.60;;;-0.30;99.90;;;;;;5079416;28;20762;-59
2023/12/03 01:31:20;;;;;;;34.57;23.83;;;-0.20;99.90;;;;;;5079377;28;20460;-59
2023/12/03 01:33:47;;;;;;;36.00;22.40;;;-0.20;99.90;;;;;;5079343;28;20440;-59
2023/12/03 01:36:14;;;;;;;37.90;24.90;;;-0.20;99.90;;;;;;5079781;28;20454;-59
2023/12/03 01:38:41;;;;;;;35.90;23.80;;;-0.10;99.90;;;;;;5079165;28;20485;-60
2023/12/03 01:41:10;;;;;;;36.87;23.80;;;-0.10;99.90;;;;;;5079463;28;20915;-59
2023/12/03 01:43:48;;;;;;;40.30;24.80;;;-0.10;99.90;;;;;;5079301;28;20457;-59
2023/12/03 01:46:15;;;;;;;40.97;25.00;;;0.00;99.90;;;;;;5079336;28;20491;-59
2023/12/03 01:48:42;;;;;;;41.13;26.80;;;-0.10;99.90;;;;;;5079150;28;20520;-59
2023/12/03 01:51:10;;;;;;;36.90;24.60;;;-0.10;99.90;;;;;;5079604;28;20486;-59
2023/12/03 01:53:39;;;;;;;39.43;25.90;;;-0.10;99.90;;;;;;5079129;28;20955;-59
2023/12/03 01:56:07;;;;;;;36.70;24.83;;;0.00;99.90;;;;;;5079296;28;20457;-59
2023/12/03 01:58:36;;;;;;;42.27;25.30;;;-0.10;1.00;;;;;;5078656;28;20463;-59
2023/12/03 02:01:03;;;;;;;36.50;23.00;;;-0.10;1.00;;;;;;5078898;28;20739;-57
2023/12/03 02:03:30;;;;;;;37.07;23.30;;;0.00;1.00;;;;;;5078680;28;20439;-59
2023/12/03 02:06:04;;;;;;;34.87;23.97;;;0.00;1.00;;;;;;5078993;28;20473;-59
2023/12/03 02:08:32;;;;;;;42.10;24.67;;;0.00;1.00;;;;;;5078859;28;20466;-59
2023/12/03 02:11:00;;;;;;;39.10;25.37;;;0.00;1.00;;;;;;5078996;28;20532;-59
2023/12/03 02:13:29;;;;;;;39.50;26.37;;;0.00;1.00;;;;;;5078246;28;20468;-59
2023/12/03 02:15:58;;;;;;;38.50;25.27;;;0.00;1.00;;;;;;5078613;28;20551;-59
2023/12/03 02:18:25;;;;;;;39.30;25.43;;;0.10;1.00;;;;;;5078862;28;20551;-59
2023/12/03 02:20:52;;;;;;;39.43;24.30;;;0.10;1.00;;;;;;5078867;28;20460;-59
2023/12/03 02:23:21;;;;;;;40.73;26.70;;;0.10;1.00;;;;;;5078160;28;20904;-59
2023/12/03 02:25:50;;;;;;;41.10;27.63;;;0.10;1.00;;;;;;5078354;28;20493;-59
2023/12/03 02:28:18;;;;;;;39.77;25.87;;;0.10;1.00;;;;;;5078727;28;20472;-59
2023/12/03 02:30:45;;;;;;;40.70;25.20;;;0.20;1.00;;;;;;5078847;28;20882;-59
2023/12/03 02:33:13;;;;;;;40.30;25.90;;;0.20;1.00;;;;;;5078698;28;20459;-59
2023/12/03 02:35:40;;;;;;;45.70;27.27;;;0.20;37.80;;;;;;5078360;28;20469;-59
2023/12/03 02:38:07;;;;;;;39.47;26.53;;;0.20;99.90;;;;;;5078358;28;20431;-59
2023/12/03 02:40:38;;;;;;;40.57;26.90;;;0.20;99.90;;;;;;5078558;28;20502;-59
2023/12/03 02:43:05;;;;;;;39.83;26.67;;;0.20;99.90;;;;;;5078465;28;20463;-59
2023/12/03 02:45:32;;;;;;;44.20;25.80;;;0.20;99.90;;;;;;5078015;28;20906;-59
2023/12/03 02:48:00;;;;;;;42.37;27.70;;;0.20;99.90;;;;;;5078325;28;20912;-59
2023/12/03 02:50:27;;;;;;;42.77;26.10;;;0.20;99.90;;;;;;5078139;28;20446;-59
2023/12/03 02:52:54;;;;;;;46.83;28.20;;;0.30;99.90;;;;;;5077726;28;20464;-59
2023/12/03 02:55:21;;;;;;;41.20;28.07;;;0.30;99.90;;;;;;5077547;28;20460;-59
2023/12/03 02:57:50;;;;;;;43.27;27.80;;;0.30;99.90;;;;;;5077861;28;20922;-59
2023/12/03 03:00:18;;;;;;;43.70;26.70;;;0.20;1.00;;;;;;5077519;28;20493;-59
2023/12/03 03:02:45;;;;;;;41.43;27.97;;;0.20;1.00;;;;;;5078408;28;20468;-59
2023/12/03 03:05:12;;;;;;;42.90;27.27;;;0.30;1.00;;;;;;5078104;28;20462;-59
2023/12/03 03:07:39;;;;;;;43.90;27.00;;;0.20;99.90;;;;;;5077130;28;20506;-59
2023/12/03 03:10:07;;;;;;;50.17;29.70;;;0.30;99.90;;;;;;5077609;28;20438;-59
2023/12/03 03:12:35;;;;;;;39.83;26.10;;;0.20;99.90;;;;;;5077679;28;20460;-59
2023/12/03 03:15:02;;;;;;;49.03;26.30;;;0.30;99.90;;;;;;5077702;28;20515;-59
2023/12/03 03:17:30;;;;;;;43.57;27.00;;;0.30;99.90;;;;;;5078036;28;20460;-59
2023/12/03 03:19:57;;;;;;;42.27;25.40;;;0.30;99.90;;;;;;5077490;28;20724;-59
2023/12/03 03:22:24;;;;;;;44.37;27.30;;;0.40;99.90;;;;;;5077408;28;20481;-60
2023/12/03 03:24:52;;;;;;;39.13;26.90;;;0.40;99.90;;;;;;5077857;28;20461;-60
2023/12/03 03:27:19;;;;;;;41.60;27.30;;;0.40;1.80;;;;;;5077234;28;20491;-59
2023/12/03 03:29:47;;;;;;;37.70;24.83;;;0.30;1.00;;;;;;5077306;28;20560;-59
2023/12/03 03:32:15;;;;;;;35.20;23.90;;;0.30;1.00;;;;;;5077314;28;20465;-59
2023/12/03 03:34:42;;;;;;;39.10;25.87;;;0.40;1.00;;;;;;5077551;28;20470;-59
2023/12/03 03:37:10;;;;;;;38.50;26.10;;;0.30;1.00;;;;;;5077835;28;20753;-59
2023/12/03 03:39:37;;;;;;;35.83;24.70;;;0.40;1.00;;;;;;5077519;28;20859;-59
2023/12/03 03:42:04;;;;;;;37.70;24.50;;;0.40;1.00;;;;;;5077348;28;20516;-60
2023/12/03 03:44:32;;;;;;;39.00;23.97;;;0.30;1.00;;;;;;5077402;28;20457;-60
2023/12/03 03:46:59;;;;;;;36.83;24.80;;;0.40;1.00;;;;;;5076803;28;20574;-59
2023/12/03 03:49:28;;;;;;;38.10;24.87;;;0.30;1.00;;;;;;5077531;28;20744;-59
2023/12/03 03:51:55;;;;;;;42.27;24.17;;;0.30;1.00;;;;;;5077032;28;20442;-59
2023/12/03 03:54:22;;;;;;;41.27;27.83;;;0.30;1.00;;;;;;5077110;28;20470;-59
2023/12/03 03:56:50;;;;;;;41.60;26.37;;;0.40;1.00;;;;;;5077597;28;20463;-59
2023/12/03 03:59:17;;;;;;;37.67;25.17;;;0.40;1.00;;;;;;5077633;28;20907;-59
2023/12/03 04:01:44;;;;;;;39.60;26.10;;;0.40;1.00;;;;;;5077011;28;20881;-59
2023/12/03 04:04:12;;;;;;;42.30;25.87;;;0.30;1.00;;;;;;5077788;28;20552;-59
2023/12/03 04:06:42;;;;;;;39.30;25.83;;;0.30;1.00;;;;;;5081492;28;20514;-59
2023/12/03 04:09:09;;;;;;;38.77;26.03;;;0.40;1.00;;;;;;5081717;28;20739;-59
2023/12/03 04:11:40;;;;;;;41.73;25.00;;;0.30;1.00;;;;;;5081159;28;20460;-60
2023/12/03 04:14:08;;;;;;;36.87;24.33;;;0.40;1.00;;;;;;5081155;28;20885;-59
2023/12/03 04:16:35;;;;;;;36.23;23.03;;;0.40;1.00;;;;;;5081200;28;20535;-59
2023/12/03 04:19:03;;;;;;;38.93;24.70;;;0.40;1.00;;;;;;5081276;28;20948;-60
2023/12/03 04:21:30;;;;;;;39.13;24.53;;;0.40;99.90;;;;;;5081103;28;20460;-59
2023/12/03 04:23:59;;;;;;;38.17;24.27;;;0.40;99.90;;;;;;5080888;28;20467;-59
2023/12/03 04:26:27;;;;;;;35.30;21.93;;;0.30;99.90;;;;;;5080847;28;20980;-59
2023/12/03 04:28:54;;;;;;;32.30;23.17;;;0.30;99.90;;;;;;5081268;28;20485;-60
2023/12/03 04:31:23;;;;;;;35.00;21.90;;;0.40;99.90;;;;;;5080578;28;20466;-59
2023/12/03 04:33:51;;;;;;;35.43;22.20;;;0.30;99.90;;;;;;5080676;28;20523;-59
2023/12/03 04:36:18;;;;;;;30.97;22.30;;;0.30;99.90;;;;;;5080873;28;20457;-60
2023/12/03 04:38:45;;;;;;;32.70;22.60;;;0.40;99.90;;;;;;5080651;28;20583;-60
2023/12/03 04:41:14;;;;;;;35.73;23.30;;;0.30;99.90;;;;;;5081033;28;20495;-60
2023/12/03 04:43:42;;;;;;;34.07;22.63;;;0.30;99.90;;;;;;5080131;28;20464;-59
2023/12/03 04:46:09;;;;;;;31.83;22.30;;;0.30;99.90;;;;;;5080306;28;20462;-59
2023/12/03 04:48:37;;;;;;;33.57;21.47;;;0.30;99.90;;;;;;5080423;28;20556;-59
2023/12/03 04:51:04;;;;;;;31.17;21.07;;;0.30;99.90;;;;;;5080629;28;20725;-59
2023/12/03 04:53:32;;;;;;;35.80;22.93;;;0.30;99.90;;;;;;5080102;28;20551;-59
2023/12/03 04:55:59;;;;;;;25.70;19.63;;;0.30;99.90;;;;;;5080112;28;20445;-58
2023/12/03 04:58:27;;;;;;;29.60;22.10;;;0.20;99.90;;;;;;5080251;28;20898;-59
2023/12/03 05:00:54;;;;;;;31.50;19.90;;;0.30;99.90;;;;;;5080175;28;20459;-58
2023/12/03 05:03:22;;;;;;;28.40;20.67;;;0.30;99.90;;;;;;5079928;28;20956;-59
2023/12/03 05:05:49;;;;;;;31.63;20.90;;;0.30;99.90;;;;;;5080118;28;20465;-59
2023/12/03 05:08:16;;;;;;;26.67;19.37;;;0.20;99.90;;;;;;5079736;28;20503;-59
2023/12/03 05:10:43;;;;;;;28.43;20.17;;;0.20;99.90;;;;;;5080425;28;20458;-59
2023/12/03 05:13:10;;;;;;;26.77;18.70;;;0.20;99.90;;;;;;5080095;28;20438;-59
2023/12/03 05:15:39;;;;;;;29.00;19.50;;;0.20;99.90;;;;;;5079454;28;20885;-59
2023/12/03 05:18:06;;;;;;;31.77;20.50;;;0.20;99.90;;;;;;5079942;28;20910;-59
2023/12/03 05:20:33;;;;;;;26.77;19.17;;;0.20;99.90;;;;;;5079862;28;20467;-59
2023/12/03 05:23:00;;;;;;;27.20;18.60;;;0.20;99.90;;;;;;5079874;28;20761;-59
2023/12/03 05:25:27;;;;;;;29.97;20.13;;;0.30;99.90;;;;;;5079989;28;20466;-60
2023/12/03 05:27:56;;;;;;;29.73;16.57;;;0.20;99.90;;;;;;5079941;28;20925;-60
2023/12/03 05:30:23;;;;;;;26.33;18.27;;;0.20;99.90;;;;;;5079918;28;20881;-59
2023/12/03 05:32:52;;;;;;;26.07;18.77;;;0.30;99.90;;;;;;5079781;28;20433;-59
2023/12/03 05:35:19;;;;;;;28.60;19.87;;;0.30;99.90;;;;;;5079428;28;20873;-59
2023/12/03 05:37:46;;;;;;;27.57;18.13;;;0.20;99.90;;;;;;5079258;28;20425;-59
2023/12/03 05:40:13;;;;;;;24.57;17.43;;;0.30;99.90;;;;;;5079603;28;20442;-59
2023/12/03 05:42:41;;;;;;;27.20;16.87;;;0.30;99.90;;;;;;5079642;28;20434;-59
2023/12/03 05:45:09;;;;;;;22.17;15.93;;;0.30;99.90;;;;;;5079795;28;20468;-59
2023/12/03 05:47:36;;;;;;;26.23;17.90;;;0.20;99.90;;;;;;5079165;28;20593;-59
2023/12/03 05:50:06;;;;;;;21.90;17.30;;;0.20;99.90;;;;;;5079347;28;20459;-59
2023/12/03 05:52:33;;;;;;;24.20;16.13;;;0.20;99.90;;;;;;5078929;28;20479;-59
2023/12/03 05:55:00;;;;;;;24.93;16.10;;;0.20;99.90;;;;;;5079168;28;20428;-59
2023/12/03 05:57:27;;;;;;;26.07;17.20;;;0.30;99.90;;;;;;5078789;28;20427;-60
2023/12/03 05:59:55;;;;;;;20.87;15.77;;;0.30;99.90;;;;;;5079149;28;20483;-59
2023/12/03 06:02:22;;;;;;;19.53;15.60;;;0.30;99.90;;;;;;5079076;28;20468;-60
2023/12/03 06:04:49;;;;;;;24.60;16.80;;;0.30;93.80;;;;;;5079255;28;20750;-59
2023/12/03 06:07:18;;;;;;;23.83;15.70;;;0.30;99.90;;;;;;5078834;28;20498;-60
2023/12/03 06:09:45;;;;;;;23.60;16.37;;;0.30;53.80;;;;;;5078598;28;20468;-60
2023/12/03 06:12:12;;;;;;;24.40;15.93;;;0.30;39.00;;;;;;5078711;28;20464;-60
2023/12/03 06:14:39;;;;;;;24.23;17.33;;;0.20;21.60;;;;;;5078943;28;20733;-60
2023/12/03 06:17:07;;;;;;;22.80;16.30;;;0.30;27.60;;;;;;5079114;28;20935;-60
2023/12/03 06:19:34;;;;;;;21.20;15.53;;;0.30;1.00;;;;;;5078365;28;20461;-59
2023/12/03 06:22:02;;;;;;;20.13;13.90;;;0.30;1.00;;;;;;5078595;28;20437;-60
2023/12/03 06:24:30;;;;;;;22.13;15.60;;;0.30;1.00;;;;;;5078359;28;20434;-60
2023/12/03 06:26:58;;;;;;;20.70;14.90;;;0.30;1.00;;;;;;5077747;28;20941;-60
2023/12/03 06:29:25;;;;;;;20.93;14.10;;;0.30;1.00;;;;;;5078615;28;20463;-59
2023/12/03 06:31:53;;;;;;;27.13;18.40;;;0.30;1.00;;;;;;5078229;28;20465;-60
2023/12/03 06:34:20;;;;;;;24.10;16.23;;;0.30;1.00;;;;;;5078393;28;20513;-60
2023/12/03 06:36:47;;;;;;;23.20;15.47;;;0.30;1.00;;;;;;5078588;28;20457;-59
2023/12/03 06:39:20;;;;;;;23.13;15.30;;;0.30;1.00;;;;;;5078382;28;20460;-59
2023/12/03 06:41:49;;;;;;;21.67;14.30;;;0.30;1.00;;;;;;5078222;28;20449;-59
2023/12/03 06:44:16;;;;;;;23.20;14.60;;;0.30;1.00;;;;;;5078191;28;20937;-59
2023/12/03 06:46:43;;;;;;;21.43;14.20;;;0.20;1.00;;;;;;5078252;28;20462;-59
2023/12/03 06:49:11;;;;;;;19.57;14.60;;;0.20;1.00;;;;;;5078594;28;20463;-59
2023/12/03 06:51:39;;;;;;;20.57;14.83;;;0.20;1.00;;;;;;5077710;28;20439;-59
2023/12/03 06:54:06;;;;;;;20.43;15.00;;;0.30;1.00;;;;;;5078021;28;20459;-59
2023/12/03 06:56:33;;;;;;;22.50;14.93;;;0.30;1.00;;;;;;5078419;28;20460;-59
2023/12/03 06:59:02;;;;;;;21.30;15.57;;;0.30;1.00;;;;;;5077822;28;20464;-60
2023/12/03 07:01:29;;;;;;;25.43;15.10;;;0.20;1.00;;;;;;5076833;28;20521;-59
2023/12/03 07:03:57;;;;;;;21.70;14.67;;;0.20;1.00;;;;;;5077905;28;20511;-59
2023/12/03 07:06:24;;;;;;;21.10;16.03;;;0.20;1.00;;;;;;5077732;28;20467;-60
2023/12/03 07:08:51;;;;;;;21.20;15.50;;;0.20;1.00;;;;;;5077538;28;20504;-59
2023/12/03 07:11:18;;;;;;;23.00;16.40;;;0.20;1.00;;;;;;5078040;28;20456;-59
2023/12/03 07:13:46;;;;;;;21.23;14.90;;;0.20;1.00;;;;;;5077471;28;20527;-60
2023/12/03 07:16:15;;;;;;;19.50;14.60;;;0.30;1.00;;;;;;5077542;28;20433;-59
2023/12/03 07:18:43;;;;;;;20.30;14.90;;;0.20;1.00;;;;;;5077660;28;20436;-59
2023/12/03 07:21:11;;;;;;;19.87;14.40;;;0.20;1.00;;;;;;5077167;28;20517;-59
2023/12/03 07:23:38;;;;;;;20.27;14.50;;;0.20;1.00;;;;;;5077230;28;20464;-59
2023/12/03 07:26:10;;;;;;;21.80;14.13;;;0.10;1.00;;;;;;5077046;28;20892;-60
2023/12/03 07:28:37;;;;;;;22.60;14.90;;;0.00;1.00;;;;;;5077448;28;20492;-59
2023/12/03 07:31:05;;;;;;;20.10;15.63;;;0.10;1.00;;;;;;5076875;28;20916;-59
2023/12/03 07:33:34;;;;;;;19.87;13.40;;;0.10;1.00;;;;;;5076879;28;20463;-60
2023/12/03 07:36:01;;;;;;;20.67;14.43;;;0.10;1.00;;;;;;5076969;28;20467;-59
2023/12/03 07:38:29;;;;;;;19.47;13.63;;;0.10;1.00;;;;;;5077429;28;20456;-59
2023/12/03 07:40:56;;;;;;;17.13;12.83;;;0.10;1.00;;;;;;5077101;28;20468;-59
2023/12/03 07:43:24;;;;;;;20.03;14.20;;;0.10;1.00;;;;;;5077008;28;20459;-59
2023/12/03 07:45:51;;;;;;;35.50;21.97;;;0.20;1.00;;;;;;5076880;28;20435;-59
2023/12/03 07:48:18;;;;;;;41.17;25.67;;;0.10;1.00;;;;;;5076969;28;20495;-59
2023/12/03 07:50:47;;;;;;;24.53;15.40;;;0.10;1.00;;;;;;5077233;28;20460;-59
2023/12/03 07:53:14;;;;;;;19.10;14.30;;;0.10;1.00;;;;;;5077303;28;20547;-60
2023/12/03 07:55:41;;;;;;;28.67;20.67;;;0.10;1.00;;;;;;5076884;28;20474;-59
2023/12/03 07:58:09;;;;;;;20.13;14.37;;;0.10;1.00;;;;;;5077244;28;20901;-59
2023/12/03 08:00:37;;;;;;;17.40;12.73;;;0.20;1.00;;;;;;5077184;28;20832;-60
2023/12/03 08:03:05;;;;;;;17.30;13.17;;;0.20;1.00;;;;;;5077102;28;20857;-59
2023/12/03 08:05:32;;;;;;;21.23;15.43;;;0.20;1.00;;;;;;5075350;28;20785;-58
2023/12/03 08:08:01;;;;;;;18.77;13.90;;;0.20;1.00;;;;;;5075977;28;20550;-60
2023/12/03 08:10:28;;;;;;;21.00;14.23;;;0.10;1.00;;;;;;5074888;28;20433;-59
2023/12/03 08:12:55;;;;;;;19.30;13.63;;;0.10;1.00;;;;;;5074900;28;20464;-59
2023/12/03 08:15:23;;;;;;;22.70;14.93;;;0.00;1.00;;;;;;5075121;28;20901;-58
2023/12/03 08:17:50;;;;;;;19.33;14.27;;;0.00;1.00;;;;;;5074428;28;20487;-59
2023/12/03 08:20:17;;;;;;;20.50;13.50;;;0.00;1.00;;;;;;5075688;28;20702;-59
2023/12/03 08:22:45;;;;;;;17.43;13.13;;;0.10;1.00;;;;;;5074879;28;20559;-60
2023/12/03 08:25:14;;;;;;;15.63;12.60;;;0.10;1.00;;;;;;5075535;28;20495;-60
2023/12/03 08:27:42;;;;;;;19.23;15.17;;;0.20;1.00;;;;;;5076312;28;20501;-59
2023/12/03 08:30:10;;;;;;;21.70;14.83;;;0.20;1.00;;;;;;5076501;28;20948;-59
2023/12/03 08:32:38;;;;;;;19.83;13.27;;;0.20;1.00;;;;;;5076496;28;20460;-60
2023/12/03 08:35:06;;;;;;;17.50;12.03;;;0.30;1.00;;;;;;5076929;28;20525;-60
2023/12/03 08:37:33;;;;;;;18.30;12.37;;;0.30;1.00;;;;;;5076945;28;20450;-59
2023/12/03 08:40:01;;;;;;;19.93;14.20;;;0.30;1.00;;;;;;5076400;28;20463;-59
2023/12/03 08:42:29;;;;;;;22.83;14.40;;;0.20;1.00;;;;;;5076878;28;20464;-59
2023/12/03 08:44:56;;;;;;;21.27;14.20;;;0.10;1.00;;;;;;5076729;28;20470;-59
2023/12/03 08:47:23;;;;;;;20.13;13.70;;;0.10;1.00;;;;;;5076393;28;20919;-59
2023/12/03 08:49:51;;;;;;;20.43;14.50;;;0.10;1.00;;;;;;5076808;28;20463;-59
2023/12/03 08:52:18;;;;;;;18.80;13.93;;;0.10;1.00;;;;;;5080597;28;20481;-59
2023/12/03 08:54:45;;;;;;;22.03;13.97;;;0.00;1.00;;;;;;5080283;28;20460;-60
2023/12/03 08:57:12;;;;;;;21.93;13.87;;;0.00;1.00;;;;;;5080668;28;20920;-59
2023/12/03 08:59:41;;;;;;;22.50;16.70;;;0.00;1.00;;;;;;5080167;28;20808;-60
2023/12/03 09:02:08;;;;;;;19.50;14.50;;;0.00;1.00;;;;;;5079886;28;20463;-59
2023/12/03 09:04:38;;;;;;;19.00;13.30;;;0.00;1.00;;;;;;5078903;28;20465;-56
2023/12/03 09:07:06;;;;;;;26.10;18.27;;;0.00;1.00;;;;;;5078895;28;20496;-57
2023/12/03 09:09:33;;;;;;;20.37;14.40;;;0.00;1.00;;;;;;5079163;28;20469;-53
2023/12/03 09:12:00;;;;;;;21.90;15.73;;;0.10;1.00;;;;;;5078949;28;20794;-55
2023/12/03 09:14:27;;;;;;;22.23;15.20;;;0.10;1.00;;;;;;5078662;28;20462;-57
2023/12/03 09:16:58;;;;;;;34.07;21.30;;;0.20;1.00;;;;;;5078520;28;20858;-55
2023/12/03 09:19:25;;;;;;;23.97;16.03;;;0.30;1.00;;;;;;5079023;28;20453;-57
2023/12/03 09:21:52;;;;;;;22.13;14.30;;;0.30;1.00;;;;;;5080017;28;20897;-56
2023/12/03 09:24:19;;;;;;;32.47;20.60;;;0.30;1.00;;;;;;5080071;28;20727;-55
2023/12/03 09:26:47;;;;;;;22.47;14.43;;;0.40;1.00;;;;;;5080292;28;20466;-58
2023/12/03 09:29:15;;;;;;;20.00;14.63;;;0.50;1.00;;;;;;5080075;28;20600;-59
2023/12/03 09:31:42;;;;;;;21.53;14.33;;;0.50;1.00;;;;;;5079767;28;20492;-59
2023/12/03 09:34:11;;;;;;;20.03;14.10;;;0.60;1.00;;;;;;5080037;28;20438;-58
2023/12/03 09:36:38;;;;;;;18.90;14.00;;;0.90;1.00;;;;;;5079829;28;20459;-58
2023/12/03 09:39:05;;;;;;;20.80;13.90;;;1.10;1.00;;;;;;5080099;28;20904;-59
2023/12/03 09:41:34;;;;;;;22.47;14.90;;;1.30;1.00;;;;;;5079223;28;20556;-59
2023/12/03 09:44:09;;;;;;;18.90;14.00;;;1.50;1.00;;;;;;5079656;28;20544;-59
2023/12/03 09:46:38;;;;;;;18.00;13.60;;;1.80;1.00;;;;;;5080430;28;20464;-60
2023/12/03 09:49:10;;;;;;;20.37;13.10;;;2.00;99.90;;;;;;5079869;28;20489;-60
2023/12/03 09:51:42;;;;;;;19.37;12.70;;;2.10;99.90;;;;;;5079558;28;20503;-61
2023/12/03 09:54:09;;;;;;;20.13;14.10;;;2.20;99.90;;;;;;5079330;28;20464;-61
2023/12/03 09:56:39;;;;;;;21.57;14.80;;;2.30;99.90;;;;;;5079669;28;20465;-61
2023/12/03 09:59:10;;;;;;;21.87;13.47;;;2.40;99.90;;;;;;5079612;28;20457;-62
2023/12/03 10:01:38;;;;;;;20.53;15.40;;;2.40;99.90;;;;;;5079120;28;20865;-62
2023/12/03 10:04:06;;;;;;;21.17;13.80;;;2.40;99.90;;;;;;5078352;28;20457;-61
2023/12/03 10:06:37;;;;;;;21.90;14.00;;;2.50;99.90;;;;;;5078705;28;20472;-63
2023/12/03 10:09:08;;;;;;;19.20;13.40;;;2.50;99.90;;;;;;5079366;28;20489;-64
2023/12/03 10:11:41;;;;;;;17.07;12.63;;;2.50;99.90;;;;;;5079450;28;20461;-64
2023/12/03 10:14:10;;;;;;;18.77;13.47;;;2.40;99.90;;;;;;5078827;28;20453;-65
2023/12/03 10:16:38;;;;;;;18.33;12.80;;;2.40;99.90;;;;;;5078751;28;20501;-65
2023/12/03 10:19:06;;;;;;;18.93;12.80;;;2.30;99.90;;;;;;5078776;28;20485;-65
2023/12/03 10:21:33;;;;;;;29.53;17.33;;;2.20;99.90;;;;;;5078303;28;20550;-65
2023/12/03 10:24:03;;;;;;;39.83;24.43;;;2.20;99.90;;;;;;5078093;28;20778;-65
2023/12/03 10:26:32;;;;;;;37.00;23.00;;;2.20;99.90;;;;;;5078863;28;20462;-64
2023/12/03 10:28:59;;;;;;;19.73;13.40;;;2.20;99.90;;;;;;5078708;28;20588;-65
2023/12/03 10:31:30;;;;;;;23.80;15.80;;;2.30;99.90;;;;;;5078473;28;20432;-65
2023/12/03 10:33:58;;;;;;;23.67;15.57;;;2.30;99.90;;;;;;5078305;28;20541;-65
2023/12/03 10:36:29;;;;;;;32.90;18.40;;;2.30;99.90;;;;;;5078124;28;20461;-65
2023/12/03 10:38:57;;;;;;;21.93;14.10;;;2.40;99.90;;;;;;5078433;28;20485;-64
2023/12/03 10:41:24;;;;;;;20.07;13.90;;;2.50;99.90;;;;;;5076577;28;20515;-64
2023/12/03 10:43:53;;;;;;;20.47;14.27;;;2.50;99.90;;;;;;5077777;28;20457;-65
2023/12/03 10:46:24;;;;;;;17.10;12.63;;;2.40;99.90;;;;;;5078201;28;20465;-64
2023/12/03 10:48:52;;;;;;;22.50;14.20;;;2.40;99.90;;;;;;5078108;28;20588;-64
2023/12/03 10:51:20;;;;;;;17.60;12.53;;;2.50;99.90;;;;;;5077691;28;20449;-63
2023/12/03 10:53:47;;;;;;;19.30;13.13;;;2.50;99.90;;;;;;5077600;28;20461;-62
2023/12/03 10:56:16;;;;;;;20.00;12.97;;;2.70;99.90;;;;;;5077920;28;20458;-62
2023/12/03 10:58:44;;;;;;;20.83;13.67;;;2.90;99.90;;;;;;5078148;28;20460;-63
2023/12/03 11:01:19;;;;;;;19.43;13.37;;;3.10;99.90;;;;;;5078055;28;20545;-63
2023/12/03 11:03:56;;;;;;;20.00;13.53;;;3.00;99.90;;;;;;5077867;28;20514;-60
2023/12/03 11:06:25;;;;;;;19.80;12.70;;;3.00;99.90;;;;;;5078264;28;20457;-60
2023/12/03 11:08:53;;;;;;;22.30;14.47;;;3.00;99.90;;;;;;5078003;28;20504;-59
2023/12/03 11:11:21;;;;;;;19.60;13.30;;;3.00;99.90;;;;;;5077306;28;20500;-59
2023/12/03 11:13:52;;;;;;;20.23;13.27;;;2.80;99.90;;;;;;5077615;28;20552;-59
2023/12/03 11:16:22;;;;;;;17.57;12.00;;;2.50;99.90;;;;;;5078097;28;20551;-59
2023/12/03 11:18:56;;;;;;;21.70;13.53;;;2.30;99.90;;;;;;5077873;28;20458;-59
2023/12/03 11:21:33;;;;;;;19.90;12.50;;;2.20;99.90;;;;;;5077603;28;20508;-60
2023/12/03 11:24:28;;;;;;;20.00;14.20;;;2.10;99.90;;;;;;5077876;28;20460;-59
2023/12/03 11:26:58;;;;;;;20.40;13.20;;;2.10;99.90;;;;;;5077923;28;20500;-59
2023/12/03 11:29:46;;;;;;;20.53;13.77;;;2.00;99.90;;;;;;5077050;28;20497;-60
2023/12/03 11:32:15;;;;;;;27.20;13.30;;;2.00;99.90;;;;;;5077641;28;20552;-60
2023/12/03 11:34:42;;;;;;;21.93;13.90;;;2.00;99.90;;;;;;5077900;28;20472;-60
2023/12/03 11:37:10;;;;;;;19.00;13.53;;;2.00;99.90;;;;;;5077526;28;20457;-60
2023/12/03 11:39:43;;;;;;;19.70;13.20;;;1.80;99.90;;;;;;5077459;28;20452;-60
2023/12/03 11:42:13;;;;;;;18.17;12.67;;;1.80;99.90;;;;;;5077524;28;20821;-60
2023/12/03 11:44:41;;;;;;;20.93;13.63;;;1.80;99.90;;;;;;5077407;28;20553;-60
2023/12/03 11:47:09;;;;;;;19.73;13.73;;;2.10;99.90;;;;;;5077549;28;20752;-60
2023/12/03 11:49:39;;;;;;;21.73;12.93;;;2.40;99.90;;;;;;5077266;28;20489;-60
2023/12/03 11:52:07;;;;;;;22.10;12.60;;;2.70;99.90;;;;;;5077405;28;20548;-60
2023/12/03 11:54:38;;;;;;;18.43;13.20;;;2.70;99.90;;;;;;5077514;28;20428;-60
2023/12/03 11:57:14;;;;;;;20.63;12.90;;;2.80;99.90;;;;;;5076598;28;20953;-59
2023/12/03 11:59:43;;;;;;;17.63;12.67;;;3.00;99.90;;;;;;5077482;28;20452;-60
2023/12/03 12:02:10;;;;;;;21.53;12.87;;;3.10;99.90;;;;;;5077093;28;20458;-60
2023/12/03 12:04:39;;;;;;;19.50;12.70;;;3.20;99.90;;;;;;5073891;28;20478;-60
2023/12/03 12:07:14;;;;;;;24.30;13.90;;;3.20;99.90;;;;;;5074540;28;21032;-61
2023/12/03 12:09:41;;;;;;;18.93;12.77;;;3.30;99.90;;;;;;5074478;28;20587;-61
2023/12/03 12:12:09;;;;;;;18.10;13.27;;;3.10;99.90;;;;;;5077159;28;20463;-62
2023/12/03 12:14:36;;;;;;;21.20;13.73;;;3.10;99.90;;;;;;5077293;28;20488;-63
2023/12/03 12:17:04;;;;;;;20.93;14.50;;;3.20;99.90;;;;;;5077538;28;20449;-62
2023/12/03 12:19:31;;;;;;;21.20;14.00;;;3.10;99.90;;;;;;5077361;28;20449;-62
2023/12/03 12:21:59;;;;;;;20.53;13.60;;;3.10;99.90;;;;;;5077318;28;20970;-61
2023/12/03 12:24:27;;;;;;;20.87;13.60;;;3.00;99.90;;;;;;5077296;28;20945;-62
2023/12/03 12:26:55;;;;;;;20.10;13.50;;;3.00;99.90;;;;;;5080811;28;20464;-62
2023/12/03 12:29:23;;;;;;;23.40;14.70;;;2.90;99.90;;;;;;5080934;28;20565;-62
2023/12/03 12:31:53;;;;;;;20.70;15.00;;;2.80;99.90;;;;;;5080901;28;20504;-62
2023/12/03 12:34:22;;;;;;;20.17;13.93;;;2.70;99.90;;;;;;5081309;28;20754;-61
2023/12/03 12:36:50;;;;;;;19.50;13.50;;;2.70;99.90;;;;;;5081553;28;20436;-61
2023/12/03 12:39:29;;;;;;;21.30;13.43;;;2.70;99.90;;;;;;5081161;28;20456;-61
2023/12/03 12:41:57;;;;;;;22.20;13.73;;;2.60;99.90;;;;;;5080459;28;20467;-61
2023/12/03 12:44:39;;;;;;;21.90;13.73;;;2.60;99.90;;;;;;5081236;28;20486;-61